sensor_id;sensor_type;location;lat;lon;timestamp;temperature;humidity
21662;DHT22;10992;48.170;8.596;2022-11-15T00:00:39;4.30;99.90
21662;DHT22;10992;48.170;8.596;2022-11-15T00:03:27;4.40;99.90
21662;DHT22;10992;48.170;8.596;2022-11-15T00:06:13;4.60;99.90
21662;DHT22;10992;48.170;8.596;2022-11-15T00:09:00;4.70;99.90
21662;DHT22;10992;48.170;8.596;2022-11-15T00:11:45;4.80;99.90
21662;DHT22;10992;48.170;8.596;2022-11-15T00:14:31;5.00;99.90
21662;DHT22;10992;48.170;8.596;2022-11-15T00:17:16;5.10;99.90
21662;DHT22;10992;48.170;8.596;2022-11-15T00:20:02;5.30;99.90
21662;DHT22;10992;48.170;8.596;2022-11-15T00:22:48;5.40;99.90
21662;DHT22;10992;48.170;8.596;2022-11-15T00:25:33;5.50;99.90
21662;DHT22;10992;48.170;8.596;2022-11-15T00:28:19;5.50;99.90
21662;DHT22;10992;48.170;8.596;2022-11-15T00:31:09;5.60;99.90
21662;DHT22;10992;48.170;8.596;2022-11-15T00:33:56;5.70;99.90
21662;DHT22;10992;48.170;8.596;2022-11-15T00:36:41;5.80;99.90
21662;DHT22;10992;48.170;8.596;2022-11-15T00:39:27;5.80;99.90
21662;DHT22;10992;48.170;8.596;2022-11-15T00:42:13;5.90;99.90
21662;DHT22;10992;48.170;8.596;2022-11-15T00:44:58;6.00;99.90
21662;DHT22;10992;48.170;8.596;2022-11-15T00:47:45;6.00;99.90
21662;DHT22;10992;48.170;8.596;2022-11-15T00:50:31;6.00;99.90
21662;DHT22;10992;48.170;8.596;2022-11-15T00:53:17;5.90;99.90
21662;DHT22;10992;48.170;8.596;2022-11-15T00:56:02;5.90;99.90
21662;DHT22;10992;48.170;8.596;2022-11-15T00:58:47;5.80;99.90
21662;DHT22;10992;48.170;8.596;2022-11-15T01:01:33;5.80;99.90
21662;DHT22;10992;48.170;8.596;2022-11-15T01:04:19;5.70;99.90
21662;DHT22;10992;48.170;8.596;2022-11-15T01:07:04;5.70;99.90
21662;DHT22;10992;48.170;8.596;2022-11-15T01:09:50;5.70;99.90
21662;DHT22;10992;48.170;8.596;2022-11-15T01:12:35;5.70;99.90
21662;DHT22;10992;48.170;8.596;2022-11-15T01:15:21;5.80;99.90
21662;DHT22;10992;48.170;8.596;2022-11-15T01:18:06;5.90;99.90
21662;DHT22;10992;48.170;8.596;2022-11-15T01:20:52;5.90;99.90
21662;DHT22;10992;48.170;8.596;2022-11-15T01:23:38;5.90;99.90
21662;DHT22;10992;48.170;8.596;2022-11-15T01:26:24;5.90;99.90
21662;DHT22;10992;48.170;8.596;2022-11-15T01:29:10;6.00;99.90
21662;DHT22;10992;48.170;8.596;2022-11-15T01:31:55;6.00;99.90
21662;DHT22;10992;48.170;8.596;2022-11-15T01:34:41;5.80;99.90
21662;DHT22;10992;48.170;8.596;2022-11-15T01:37:26;5.80;99.90
21662;DHT22;10992;48.170;8.596;2022-11-15T01:40:12;5.70;99.90
21662;DHT22;10992;48.170;8.596;2022-11-15T01:42:57;5.60;99.90
21662;DHT22;10992;48.170;8.596;2022-11-15T01:45:43;5.60;99.90
21662;DHT22;10992;48.170;8.596;2022-11-15T01:48:33;5.50;99.90
21662;DHT22;10992;48.170;8.596;2022-11-15T01:51:22;5.60;99.90
21662;DHT22;10992;48.170;8.596;2022-11-15T01:54:11;5.70;99.90
21662;DHT22;10992;48.170;8.596;2022-11-15T01:57:09;5.70;99.90
21662;DHT22;10992;48.170;8.596;2022-11-15T01:59:57;5.90;99.90
21662;DHT22;10992;48.170;8.596;2022-11-15T02:02:45;6.00;99.90
21662;DHT22;10992;48.170;8.596;2022-11-15T02:05:31;6.00;99.90
21662;DHT22;10992;48.170;8.596;2022-11-15T02:08:17;6.10;99.90
21662;DHT22;10992;48.170;8.596;2022-11-15T02:11:08;6.10;99.90
21662;DHT22;10992;48.170;8.596;2022-11-15T02:13:54;6.20;99.90
21662;DHT22;10992;48.170;8.596;2022-11-15T02:16:58;6.20;99.90
21662;DHT22;10992;48.170;8.596;2022-11-15T02:23:04;6.30;99.90
21662;DHT22;10992;48.170;8.596;2022-11-15T02:29:05;6.40;99.90
21662;DHT22;10992;48.170;8.596;2022-11-15T02:32:25;6.40;99.90
21662;DHT22;10992;48.170;8.596;2022-11-15T02:41:40;6.50;99.90
21662;DHT22;10992;48.170;8.596;2022-11-15T02:44:33;6.50;99.90
21662;DHT22;10992;48.170;8.596;2022-11-15T02:47:23;6.60;99.90
21662;DHT22;10992;48.170;8.596;2022-11-15T02:50:16;6.70;99.90
21662;DHT22;10992;48.170;8.596;2022-11-15T02:53:02;6.70;99.90
21662;DHT22;10992;48.170;8.596;2022-11-15T02:55:50;6.70;99.90
21662;DHT22;10992;48.170;8.596;2022-11-15T02:59:06;6.80;99.90
21662;DHT22;10992;48.170;8.596;2022-11-15T03:02:50;6.80;99.90
21662;DHT22;10992;48.170;8.596;2022-11-15T03:08:31;6.80;99.90
21662;DHT22;10992;48.170;8.596;2022-11-15T03:11:18;6.90;99.90
21662;DHT22;10992;48.170;8.596;2022-11-15T03:14:19;6.90;99.90
21662;DHT22;10992;48.170;8.596;2022-11-15T03:20:05;7.00;99.90
21662;DHT22;10992;48.170;8.596;2022-11-15T03:22:52;7.00;99.90
21662;DHT22;10992;48.170;8.596;2022-11-15T03:25:47;7.00;99.90
21662;DHT22;10992;48.170;8.596;2022-11-15T03:28:40;7.00;99.90
21662;DHT22;10992;48.170;8.596;2022-11-15T03:31:30;7.00;99.90
21662;DHT22;10992;48.170;8.596;2022-11-15T03:34:39;7.00;99.90
21662;DHT22;10992;48.170;8.596;2022-11-15T03:37:33;7.00;99.90
21662;DHT22;10992;48.170;8.596;2022-11-15T03:40:30;6.90;99.90
21662;DHT22;10992;48.170;8.596;2022-11-15T03:47:21;7.00;99.90
21662;DHT22;10992;48.170;8.596;2022-11-15T03:49:51;7.00;99.90
21662;DHT22;10992;48.170;8.596;2022-11-15T03:52:39;6.80;99.90
21662;DHT22;10992;48.170;8.596;2022-11-15T03:55:26;6.70;99.90
21662;DHT22;10992;48.170;8.596;2022-11-15T03:58:11;6.80;99.90
21662;DHT22;10992;48.170;8.596;2022-11-15T04:00:57;6.70;99.90
21662;DHT22;10992;48.170;8.596;2022-11-15T04:03:44;6.70;99.90
21662;DHT22;10992;48.170;8.596;2022-11-15T04:06:30;6.60;99.90
21662;DHT22;10992;48.170;8.596;2022-11-15T04:09:15;6.70;99.90
21662;DHT22;10992;48.170;8.596;2022-11-15T04:12:01;6.80;99.90
21662;DHT22;10992;48.170;8.596;2022-11-15T04:14:46;6.90;99.90
21662;DHT22;10992;48.170;8.596;2022-11-15T04:17:56;6.90;99.90
21662;DHT22;10992;48.170;8.596;2022-11-15T04:20:42;6.80;99.90
21662;DHT22;10992;48.170;8.596;2022-11-15T04:23:46;6.80;99.90
21662;DHT22;10992;48.170;8.596;2022-11-15T04:26:49;6.80;99.90
21662;DHT22;10992;48.170;8.596;2022-11-15T04:29:35;6.80;99.90
21662;DHT22;10992;48.170;8.596;2022-11-15T04:32:21;6.80;99.90
21662;DHT22;10992;48.170;8.596;2022-11-15T04:35:06;6.80;99.90
21662;DHT22;10992;48.170;8.596;2022-11-15T04:37:52;6.70;99.90
21662;DHT22;10992;48.170;8.596;2022-11-15T04:40:38;6.80;99.90
21662;DHT22;10992;48.170;8.596;2022-11-15T04:43:23;6.80;99.90
21662;DHT22;10992;48.170;8.596;2022-11-15T04:46:09;6.80;99.90
21662;DHT22;10992;48.170;8.596;2022-11-15T04:48:54;6.90;99.90
21662;DHT22;10992;48.170;8.596;2022-11-15T04:51:43;6.90;99.90
21662;DHT22;10992;48.170;8.596;2022-11-15T04:54:29;6.90;99.90
21662;DHT22;10992;48.170;8.596;2022-11-15T04:57:15;6.90;99.90
21662;DHT22;10992;48.170;8.596;2022-11-15T05:00:00;6.90;99.90
21662;DHT22;10992;48.170;8.596;2022-11-15T05:02:46;6.90;99.90
21662;DHT22;10992;48.170;8.596;2022-11-15T05:05:50;6.90;99.90
21662;DHT22;10992;48.170;8.596;2022-11-15T05:08:36;6.90;99.90
21662;DHT22;10992;48.170;8.596;2022-11-15T05:11:21;6.90;99.90
21662;DHT22;10992;48.170;8.596;2022-11-15T05:14:07;6.90;99.90
21662;DHT22;10992;48.170;8.596;2022-11-15T05:16:52;6.90;99.90
21662;DHT22;10992;48.170;8.596;2022-11-15T05:19:38;6.90;99.90
21662;DHT22;10992;48.170;8.596;2022-11-15T05:22:24;6.90;99.90
21662;DHT22;10992;48.170;8.596;2022-11-15T05:25:09;7.00;99.90
21662;DHT22;10992;48.170;8.596;2022-11-15T05:27:55;7.10;99.90
21662;DHT22;10992;48.170;8.596;2022-11-15T05:30:40;7.20;99.90
21662;DHT22;10992;48.170;8.596;2022-11-15T05:33:26;7.30;99.90
21662;DHT22;10992;48.170;8.596;2022-11-15T05:36:32;7.40;99.90
21662;DHT22;10992;48.170;8.596;2022-11-15T05:39:19;7.40;99.90
21662;DHT22;10992;48.170;8.596;2022-11-15T05:42:09;7.40;99.90
21662;DHT22;10992;48.170;8.596;2022-11-15T05:44:56;7.40;99.90
21662;DHT22;10992;48.170;8.596;2022-11-15T05:47:43;7.30;99.90
21662;DHT22;10992;48.170;8.596;2022-11-15T05:50:29;7.40;99.90
21662;DHT22;10992;48.170;8.596;2022-11-15T05:53:18;7.40;99.90
21662;DHT22;10992;48.170;8.596;2022-11-15T05:56:05;7.30;99.90
21662;DHT22;10992;48.170;8.596;2022-11-15T05:58:53;7.30;99.90
21662;DHT22;10992;48.170;8.596;2022-11-15T06:01:44;7.40;99.90
21662;DHT22;10992;48.170;8.596;2022-11-15T06:04:30;7.30;99.90
21662;DHT22;10992;48.170;8.596;2022-11-15T06:07:15;7.40;99.90
21662;DHT22;10992;48.170;8.596;2022-11-15T06:10:01;7.40;99.90
21662;DHT22;10992;48.170;8.596;2022-11-15T06:12:46;7.40;99.90
21662;DHT22;10992;48.170;8.596;2022-11-15T06:15:32;7.30;99.90
21662;DHT22;10992;48.170;8.596;2022-11-15T06:18:19;7.20;99.90
21662;DHT22;10992;48.170;8.596;2022-11-15T06:21:05;7.00;99.90
21662;DHT22;10992;48.170;8.596;2022-11-15T06:23:51;6.90;99.90
21662;DHT22;10992;48.170;8.596;2022-11-15T06:26:36;6.80;99.90
21662;DHT22;10992;48.170;8.596;2022-11-15T06:29:21;6.80;99.90
21662;DHT22;10992;48.170;8.596;2022-11-15T06:32:07;6.80;99.90
21662;DHT22;10992;48.170;8.596;2022-11-15T06:34:52;6.80;99.90
21662;DHT22;10992;48.170;8.596;2022-11-15T06:37:38;6.70;99.90
21662;DHT22;10992;48.170;8.596;2022-11-15T06:40:23;6.70;99.90
21662;DHT22;10992;48.170;8.596;2022-11-15T06:43:09;6.80;99.90
21662;DHT22;10992;48.170;8.596;2022-11-15T06:45:54;6.90;99.90
21662;DHT22;10992;48.170;8.596;2022-11-15T06:48:40;7.50;99.90
21662;DHT22;10992;48.170;8.596;2022-11-15T06:51:25;7.70;99.90
21662;DHT22;10992;48.170;8.596;2022-11-15T06:54:11;7.80;99.90
21662;DHT22;10992;48.170;8.596;2022-11-15T06:56:56;7.70;99.90
21662;DHT22;10992;48.170;8.596;2022-11-15T06:59:42;7.50;99.90
21662;DHT22;10992;48.170;8.596;2022-11-15T07:02:28;7.50;99.90
21662;DHT22;10992;48.170;8.596;2022-11-15T07:05:14;7.50;99.90
21662;DHT22;10992;48.170;8.596;2022-11-15T07:08:00;7.50;99.90
21662;DHT22;10992;48.170;8.596;2022-11-15T07:10:45;7.60;99.90
21662;DHT22;10992;48.170;8.596;2022-11-15T07:13:32;7.60;99.90
21662;DHT22;10992;48.170;8.596;2022-11-15T07:16:19;7.60;99.90
21662;DHT22;10992;48.170;8.596;2022-11-15T07:19:05;7.60;99.90
21662;DHT22;10992;48.170;8.596;2022-11-15T07:21:50;7.60;99.90
21662;DHT22;10992;48.170;8.596;2022-11-15T07:24:36;7.60;99.90
21662;DHT22;10992;48.170;8.596;2022-11-15T07:27:21;7.60;99.90
21662;DHT22;10992;48.170;8.596;2022-11-15T07:30:07;7.70;99.90
21662;DHT22;10992;48.170;8.596;2022-11-15T07:32:58;7.60;99.90
21662;DHT22;10992;48.170;8.596;2022-11-15T07:35:43;7.70;99.90
21662;DHT22;10992;48.170;8.596;2022-11-15T07:38:32;7.70;99.90
21662;DHT22;10992;48.170;8.596;2022-11-15T07:41:26;7.70;99.90
21662;DHT22;10992;48.170;8.596;2022-11-15T07:44:12;7.70;99.90
21662;DHT22;10992;48.170;8.596;2022-11-15T07:46:57;7.80;99.90
21662;DHT22;10992;48.170;8.596;2022-11-15T07:49:43;7.80;99.90
21662;DHT22;10992;48.170;8.596;2022-11-15T07:52:29;7.80;99.90
21662;DHT22;10992;48.170;8.596;2022-11-15T07:55:14;7.80;99.90
21662;DHT22;10992;48.170;8.596;2022-11-15T07:58:04;7.90;99.90
21662;DHT22;10992;48.170;8.596;2022-11-15T08:00:49;8.00;99.90
21662;DHT22;10992;48.170;8.596;2022-11-15T08:03:35;8.20;99.90
21662;DHT22;10992;48.170;8.596;2022-11-15T08:06:21;8.40;99.90
21662;DHT22;10992;48.170;8.596;2022-11-15T08:09:06;8.50;99.90
21662;DHT22;10992;48.170;8.596;2022-11-15T08:11:52;8.50;99.90
21662;DHT22;10992;48.170;8.596;2022-11-15T08:14:38;8.50;99.90
21662;DHT22;10992;48.170;8.596;2022-11-15T08:17:24;8.50;99.90
21662;DHT22;10992;48.170;8.596;2022-11-15T08:20:10;8.60;99.90
21662;DHT22;10992;48.170;8.596;2022-11-15T08:23:00;8.60;99.90
21662;DHT22;10992;48.170;8.596;2022-11-15T08:25:46;8.60;99.90
21662;DHT22;10992;48.170;8.596;2022-11-15T08:28:32;8.60;99.90
21662;DHT22;10992;48.170;8.596;2022-11-15T08:31:18;8.60;99.90
21662;DHT22;10992;48.170;8.596;2022-11-15T08:34:04;8.70;99.90
21662;DHT22;10992;48.170;8.596;2022-11-15T08:36:50;8.80;99.90
21662;DHT22;10992;48.170;8.596;2022-11-15T08:39:36;8.90;99.90
21662;DHT22;10992;48.170;8.596;2022-11-15T08:42:21;9.00;99.90
21662;DHT22;10992;48.170;8.596;2022-11-15T08:45:08;9.10;99.90
21662;DHT22;10992;48.170;8.596;2022-11-15T08:47:53;9.10;99.90
21662;DHT22;10992;48.170;8.596;2022-11-15T08:50:39;9.30;99.90
21662;DHT22;10992;48.170;8.596;2022-11-15T08:53:25;9.40;99.90
21662;DHT22;10992;48.170;8.596;2022-11-15T08:56:12;9.40;99.90
21662;DHT22;10992;48.170;8.596;2022-11-15T08:58:57;9.70;99.90
21662;DHT22;10992;48.170;8.596;2022-11-15T09:01:43;10.00;99.90
21662;DHT22;10992;48.170;8.596;2022-11-15T09:04:28;10.10;99.90
21662;DHT22;10992;48.170;8.596;2022-11-15T09:07:14;10.10;99.90
21662;DHT22;10992;48.170;8.596;2022-11-15T09:09:59;10.00;99.90
21662;DHT22;10992;48.170;8.596;2022-11-15T09:12:48;10.20;99.90
21662;DHT22;10992;48.170;8.596;2022-11-15T09:15:34;10.10;99.90
21662;DHT22;10992;48.170;8.596;2022-11-15T09:18:19;10.10;99.90
21662;DHT22;10992;48.170;8.596;2022-11-15T09:21:08;10.20;99.90
21662;DHT22;10992;48.170;8.596;2022-11-15T09:23:53;10.20;99.90
21662;DHT22;10992;48.170;8.596;2022-11-15T09:26:39;10.20;99.90
21662;DHT22;10992;48.170;8.596;2022-11-15T09:29:25;10.30;99.90
21662;DHT22;10992;48.170;8.596;2022-11-15T09:32:10;10.20;99.90
21662;DHT22;10992;48.170;8.596;2022-11-15T09:34:56;10.30;99.90
21662;DHT22;10992;48.170;8.596;2022-11-15T09:37:42;10.20;99.90
21662;DHT22;10992;48.170;8.596;2022-11-15T09:40:32;10.30;99.90
21662;DHT22;10992;48.170;8.596;2022-11-15T09:43:29;10.40;99.90
21662;DHT22;10992;48.170;8.596;2022-11-15T09:46:37;10.30;99.90
21662;DHT22;10992;48.170;8.596;2022-11-15T09:49:33;10.10;99.90
21662;DHT22;10992;48.170;8.596;2022-11-15T09:52:23;10.10;99.90
21662;DHT22;10992;48.170;8.596;2022-11-15T09:54:51;10.00;99.90
21662;DHT22;10992;48.170;8.596;2022-11-15T10:03:33;9.90;99.90
21662;DHT22;10992;48.170;8.596;2022-11-15T10:06:02;9.90;99.90
21662;DHT22;10992;48.170;8.596;2022-11-15T10:11:36;9.90;99.90
21662;DHT22;10992;48.170;8.596;2022-11-15T10:14:11;10.00;99.90
21662;DHT22;10992;48.170;8.596;2022-11-15T10:17:06;10.00;99.90
21662;DHT22;10992;48.170;8.596;2022-11-15T10:19:52;9.90;99.90
21662;DHT22;10992;48.170;8.596;2022-11-15T10:27:36;10.00;99.90
21662;DHT22;10992;48.170;8.596;2022-11-15T10:30:06;10.10;99.90
21662;DHT22;10992;48.170;8.596;2022-11-15T10:32:36;10.10;99.90
21662;DHT22;10992;48.170;8.596;2022-11-15T10:35:21;10.10;99.90
21662;DHT22;10992;48.170;8.596;2022-11-15T10:37:48;10.10;99.90
21662;DHT22;10992;48.170;8.596;2022-11-15T10:40:21;10.30;99.90
21662;DHT22;10992;48.170;8.596;2022-11-15T10:43:12;10.30;99.90
21662;DHT22;10992;48.170;8.596;2022-11-15T10:45:40;10.40;99.90
21662;DHT22;10992;48.170;8.596;2022-11-15T10:50:47;10.60;99.90
21662;DHT22;10992;48.170;8.596;2022-11-15T10:53:30;10.60;99.90
21662;DHT22;10992;48.170;8.596;2022-11-15T10:56:05;10.70;99.90
21662;DHT22;10992;48.170;8.596;2022-11-15T10:58:44;10.90;99.90
21662;DHT22;10992;48.170;8.596;2022-11-15T11:01:27;10.90;99.90
21662;DHT22;10992;48.170;8.596;2022-11-15T11:04:07;11.00;99.90
21662;DHT22;10992;48.170;8.596;2022-11-15T11:06:56;11.00;99.90
21662;DHT22;10992;48.170;8.596;2022-11-15T11:09:37;11.20;99.90
21662;DHT22;10992;48.170;8.596;2022-11-15T11:12:09;11.50;99.90
21662;DHT22;10992;48.170;8.596;2022-11-15T11:14:38;11.60;99.90
21662;DHT22;10992;48.170;8.596;2022-11-15T11:25:30;11.50;99.90
21662;DHT22;10992;48.170;8.596;2022-11-15T11:28:24;11.40;99.90
21662;DHT22;10992;48.170;8.596;2022-11-15T11:36:49;11.30;99.90
21662;DHT22;10992;48.170;8.596;2022-11-15T11:39:30;11.40;99.90
21662;DHT22;10992;48.170;8.596;2022-11-15T11:47:28;11.30;99.90
21662;DHT22;10992;48.170;8.596;2022-11-15T11:50:15;11.20;99.90
21662;DHT22;10992;48.170;8.596;2022-11-15T11:53:03;11.10;99.90
21662;DHT22;10992;48.170;8.596;2022-11-15T11:55:38;11.10;99.90
21662;DHT22;10992;48.170;8.596;2022-11-15T11:58:31;11.00;99.90
21662;DHT22;10992;48.170;8.596;2022-11-15T12:01:28;11.00;99.90
21662;DHT22;10992;48.170;8.596;2022-11-15T12:09:20;11.10;99.90
21662;DHT22;10992;48.170;8.596;2022-11-15T12:17:13;11.10;99.90
21662;DHT22;10992;48.170;8.596;2022-11-15T12:19:41;11.00;99.90
21662;DHT22;10992;48.170;8.596;2022-11-15T12:22:23;10.90;99.90
21662;DHT22;10992;48.170;8.596;2022-11-15T12:25:04;10.90;99.90
21662;DHT22;10992;48.170;8.596;2022-11-15T12:27:40;10.90;99.90
21662;DHT22;10992;48.170;8.596;2022-11-15T12:30:15;10.90;99.90
21662;DHT22;10992;48.170;8.596;2022-11-15T12:32:58;10.80;99.90
21662;DHT22;10992;48.170;8.596;2022-11-15T12:38:02;10.90;99.90
21662;DHT22;10992;48.170;8.596;2022-11-15T12:40:39;10.90;99.90
21662;DHT22;10992;48.170;8.596;2022-11-15T12:43:36;11.00;99.90
21662;DHT22;10992;48.170;8.596;2022-11-15T12:46:05;10.90;99.90
21662;DHT22;10992;48.170;8.596;2022-11-15T12:51:07;10.90;99.90
21662;DHT22;10992;48.170;8.596;2022-11-15T12:53:34;10.90;99.90
21662;DHT22;10992;48.170;8.596;2022-11-15T13:12:48;11.10;99.90
21662;DHT22;10992;48.170;8.596;2022-11-15T13:17:46;10.80;99.90
21662;DHT22;10992;48.170;8.596;2022-11-15T13:28:47;10.80;99.90
21662;DHT22;10992;48.170;8.596;2022-11-15T13:33:50;10.90;99.90
21662;DHT22;10992;48.170;8.596;2022-11-15T13:39:00;10.90;99.90
21662;DHT22;10992;48.170;8.596;2022-11-15T13:41:30;10.80;99.90
21662;DHT22;10992;48.170;8.596;2022-11-15T13:43:57;10.80;99.90
21662;DHT22;10992;48.170;8.596;2022-11-15T13:46:32;10.80;99.90
21662;DHT22;10992;48.170;8.596;2022-11-15T13:49:04;10.70;99.90
21662;DHT22;10992;48.170;8.596;2022-11-15T13:51:45;10.70;99.90
21662;DHT22;10992;48.170;8.596;2022-11-15T13:56:49;10.70;99.90
21662;DHT22;10992;48.170;8.596;2022-11-15T13:59:25;10.70;99.90
21662;DHT22;10992;48.170;8.596;2022-11-15T14:01:54;10.60;99.90
21662;DHT22;10992;48.170;8.596;2022-11-15T14:04:23;10.60;99.90
21662;DHT22;10992;48.170;8.596;2022-11-15T14:06:57;10.60;99.90
21662;DHT22;10992;48.170;8.596;2022-11-15T14:11:56;10.50;99.90
21662;DHT22;10992;48.170;8.596;2022-11-15T14:14:25;10.50;99.90
21662;DHT22;10992;48.170;8.596;2022-11-15T14:16:54;10.50;99.90
21662;DHT22;10992;48.170;8.596;2022-11-15T14:22:14;10.40;99.90
21662;DHT22;10992;48.170;8.596;2022-11-15T14:24:44;10.40;99.90
21662;DHT22;10992;48.170;8.596;2022-11-15T14:27:25;10.30;99.90
21662;DHT22;10992;48.170;8.596;2022-11-15T14:29:52;10.30;99.90
21662;DHT22;10992;48.170;8.596;2022-11-15T14:32:28;10.30;99.90
21662;DHT22;10992;48.170;8.596;2022-11-15T14:34:58;10.30;99.90
21662;DHT22;10992;48.170;8.596;2022-11-15T14:37:30;10.20;99.90
21662;DHT22;10992;48.170;8.596;2022-11-15T14:40:02;10.20;99.90
21662;DHT22;10992;48.170;8.596;2022-11-15T14:42:30;10.20;99.90
21662;DHT22;10992;48.170;8.596;2022-11-15T14:44:57;10.20;99.90
21662;DHT22;10992;48.170;8.596;2022-11-15T14:47:24;10.10;99.90
21662;DHT22;10992;48.170;8.596;2022-11-15T14:49:50;10.10;99.90
21662;DHT22;10992;48.170;8.596;2022-11-15T14:52:25;10.10;99.90
21662;DHT22;10992;48.170;8.596;2022-11-15T14:54:58;10.00;99.90
21662;DHT22;10992;48.170;8.596;2022-11-15T14:57:25;10.00;99.90
21662;DHT22;10992;48.170;8.596;2022-11-15T14:59:53;9.90;99.90
21662;DHT22;10992;48.170;8.596;2022-11-15T15:02:24;9.90;99.90
21662;DHT22;10992;48.170;8.596;2022-11-15T15:04:52;9.80;99.90
21662;DHT22;10992;48.170;8.596;2022-11-15T15:07:20;9.80;99.90
21662;DHT22;10992;48.170;8.596;2022-11-15T15:09:47;9.80;99.90
21662;DHT22;10992;48.170;8.596;2022-11-15T15:12:20;9.80;99.90
21662;DHT22;10992;48.170;8.596;2022-11-15T15:14:49;9.80;99.90
21662;DHT22;10992;48.170;8.596;2022-11-15T15:17:17;9.80;99.90
21662;DHT22;10992;48.170;8.596;2022-11-15T15:19:44;9.80;99.90
21662;DHT22;10992;48.170;8.596;2022-11-15T15:22:15;9.70;99.90
21662;DHT22;10992;48.170;8.596;2022-11-15T15:24:43;9.80;99.90
21662;DHT22;10992;48.170;8.596;2022-11-15T15:27:10;9.70;99.90
21662;DHT22;10992;48.170;8.596;2022-11-15T15:29:37;9.70;99.90
21662;DHT22;10992;48.170;8.596;2022-11-15T15:32:05;9.60;99.90
21662;DHT22;10992;48.170;8.596;2022-11-15T15:34:32;9.60;99.90
21662;DHT22;10992;48.170;8.596;2022-11-15T15:37:24;9.60;99.90
21662;DHT22;10992;48.170;8.596;2022-11-15T15:39:53;9.50;99.90
21662;DHT22;10992;48.170;8.596;2022-11-15T15:42:21;9.60;99.90
21662;DHT22;10992;48.170;8.596;2022-11-15T15:44:49;9.50;99.90
21662;DHT22;10992;48.170;8.596;2022-11-15T15:47:19;9.50;99.90
21662;DHT22;10992;48.170;8.596;2022-11-15T15:49:47;9.40;99.90
21662;DHT22;10992;48.170;8.596;2022-11-15T15:52:14;9.40;99.90
21662;DHT22;10992;48.170;8.596;2022-11-15T15:54:41;9.40;99.90
21662;DHT22;10992;48.170;8.596;2022-11-15T15:57:10;9.40;99.90
21662;DHT22;10992;48.170;8.596;2022-11-15T15:59:38;9.40;99.90
21662;DHT22;10992;48.170;8.596;2022-11-15T16:02:05;9.40;99.90
21662;DHT22;10992;48.170;8.596;2022-11-15T16:04:32;9.30;99.90
21662;DHT22;10992;48.170;8.596;2022-11-15T16:06:59;9.30;99.90
21662;DHT22;10992;48.170;8.596;2022-11-15T16:09:26;9.30;99.90
21662;DHT22;10992;48.170;8.596;2022-11-15T16:12:12;9.30;99.90
21662;DHT22;10992;48.170;8.596;2022-11-15T16:14:39;9.30;99.90
21662;DHT22;10992;48.170;8.596;2022-11-15T16:17:05;9.30;99.90
21662;DHT22;10992;48.170;8.596;2022-11-15T16:19:33;9.40;99.90
21662;DHT22;10992;48.170;8.596;2022-11-15T16:22:00;9.30;99.90
21662;DHT22;10992;48.170;8.596;2022-11-15T16:24:27;9.30;99.90
21662;DHT22;10992;48.170;8.596;2022-11-15T16:26:54;9.30;99.90
21662;DHT22;10992;48.170;8.596;2022-11-15T16:29:21;9.30;99.90
21662;DHT22;10992;48.170;8.596;2022-11-15T16:31:48;9.20;99.90
21662;DHT22;10992;48.170;8.596;2022-11-15T16:34:14;9.20;99.90
21662;DHT22;10992;48.170;8.596;2022-11-15T16:36:41;9.20;99.90
21662;DHT22;10992;48.170;8.596;2022-11-15T16:39:11;9.20;99.90
21662;DHT22;10992;48.170;8.596;2022-11-15T16:41:40;9.10;99.90
21662;DHT22;10992;48.170;8.596;2022-11-15T16:44:09;9.20;99.90
21662;DHT22;10992;48.170;8.596;2022-11-15T16:46:36;9.10;99.90
21662;DHT22;10992;48.170;8.596;2022-11-15T16:49:04;9.10;99.90
21662;DHT22;10992;48.170;8.596;2022-11-15T16:51:31;9.10;99.90
21662;DHT22;10992;48.170;8.596;2022-11-15T16:53:58;9.00;99.90
21662;DHT22;10992;48.170;8.596;2022-11-15T16:56:26;9.10;99.90
21662;DHT22;10992;48.170;8.596;2022-11-15T16:58:55;9.00;99.90
21662;DHT22;10992;48.170;8.596;2022-11-15T17:01:32;9.00;99.90
21662;DHT22;10992;48.170;8.596;2022-11-15T17:04:01;8.90;99.90
21662;DHT22;10992;48.170;8.596;2022-11-15T17:06:43;8.90;99.90
21662;DHT22;10992;48.170;8.596;2022-11-15T17:09:13;8.90;99.90
21662;DHT22;10992;48.170;8.596;2022-11-15T17:11:40;8.90;99.90
21662;DHT22;10992;48.170;8.596;2022-11-15T17:14:08;8.90;99.90
21662;DHT22;10992;48.170;8.596;2022-11-15T17:16:35;8.90;99.90
21662;DHT22;10992;48.170;8.596;2022-11-15T17:19:04;8.80;99.90
21662;DHT22;10992;48.170;8.596;2022-11-15T17:21:31;8.80;99.90
21662;DHT22;10992;48.170;8.596;2022-11-15T17:23:59;8.80;99.90
21662;DHT22;10992;48.170;8.596;2022-11-15T17:26:26;8.80;99.90
21662;DHT22;10992;48.170;8.596;2022-11-15T17:28:58;8.90;99.90
21662;DHT22;10992;48.170;8.596;2022-11-15T17:31:27;8.90;99.90
21662;DHT22;10992;48.170;8.596;2022-11-15T17:33:56;8.90;99.90
21662;DHT22;10992;48.170;8.596;2022-11-15T17:36:23;8.80;99.90
21662;DHT22;10992;48.170;8.596;2022-11-15T17:38:50;8.80;99.90
21662;DHT22;10992;48.170;8.596;2022-11-15T17:41:23;8.80;99.90
21662;DHT22;10992;48.170;8.596;2022-11-15T17:43:50;8.80;99.90
21662;DHT22;10992;48.170;8.596;2022-11-15T17:46:19;8.90;99.90
21662;DHT22;10992;48.170;8.596;2022-11-15T17:48:47;8.90;99.90
21662;DHT22;10992;48.170;8.596;2022-11-15T17:51:15;8.90;99.90
21662;DHT22;10992;48.170;8.596;2022-11-15T17:53:44;8.90;99.90
21662;DHT22;10992;48.170;8.596;2022-11-15T17:56:14;8.90;99.90
21662;DHT22;10992;48.170;8.596;2022-11-15T17:58:47;8.90;99.90
21662;DHT22;10992;48.170;8.596;2022-11-15T18:01:28;8.90;99.90
21662;DHT22;10992;48.170;8.596;2022-11-15T18:03:56;8.90;99.90
21662;DHT22;10992;48.170;8.596;2022-11-15T18:06:27;8.90;99.90
21662;DHT22;10992;48.170;8.596;2022-11-15T18:08:56;8.80;99.90
21662;DHT22;10992;48.170;8.596;2022-11-15T18:11:29;8.80;99.90
21662;DHT22;10992;48.170;8.596;2022-11-15T18:13:58;8.80;99.90
21662;DHT22;10992;48.170;8.596;2022-11-15T18:16:27;8.80;99.90
21662;DHT22;10992;48.170;8.596;2022-11-15T18:18:56;8.80;99.90
21662;DHT22;10992;48.170;8.596;2022-11-15T18:21:29;8.80;99.90
21662;DHT22;10992;48.170;8.596;2022-11-15T18:23:59;8.80;99.90
21662;DHT22;10992;48.170;8.596;2022-11-15T18:26:28;8.80;99.90
21662;DHT22;10992;48.170;8.596;2022-11-15T18:29:00;8.80;99.90
21662;DHT22;10992;48.170;8.596;2022-11-15T18:31:29;8.90;99.90
21662;DHT22;10992;48.170;8.596;2022-11-15T18:33:58;8.90;99.90
21662;DHT22;10992;48.170;8.596;2022-11-15T18:36:27;8.80;99.90
21662;DHT22;10992;48.170;8.596;2022-11-15T18:41:22;8.80;99.90
21662;DHT22;10992;48.170;8.596;2022-11-15T18:43:55;8.70;99.90
21662;DHT22;10992;48.170;8.596;2022-11-15T18:46:24;8.70;99.90
21662;DHT22;10992;48.170;8.596;2022-11-15T18:48:52;8.70;99.90
21662;DHT22;10992;48.170;8.596;2022-11-15T18:51:25;8.70;99.90
21662;DHT22;10992;48.170;8.596;2022-11-15T18:53:53;8.60;99.90
21662;DHT22;10992;48.170;8.596;2022-11-15T18:56:21;8.70;99.90
21662;DHT22;10992;48.170;8.596;2022-11-15T18:58:50;8.60;99.90
21662;DHT22;10992;48.170;8.596;2022-11-15T19:01:23;8.60;99.90
21662;DHT22;10992;48.170;8.596;2022-11-15T19:03:53;8.60;99.90